Time;durP1;ratioP1;P1;durP2;ratioP2;P2;SDS_P1;SDS_P2;PMS_P1;PMS_P2;Temp;Humidity;BMP_temperature;BMP_pressure;BME280_temperature;BME280_humidity;BME280_pressure;Samples;Min_cycle;Max_cycle;Signal;HPM_P1;HPM_P2
2023/12/27 00:01:30;;;;;;;5.47;4.97;;;7.70;99.90;;;;;;5074202;28;20089;-71
2023/12/27 00:03:56;;;;;;;5.93;5.32;;;7.60;99.90;;;;;;5073645;28;20051;-71
2023/12/27 00:06:22;;;;;;;5.43;4.93;;;7.50;99.90;;;;;;5073447;28;20048;-71
2023/12/27 00:08:49;;;;;;;5.22;4.72;;;7.50;99.90;;;;;;5073767;28;20025;-71
2023/12/27 00:11:18;;;;;;;5.30;4.80;;;7.50;99.90;;;;;;5073695;28;20028;-71
2023/12/27 00:13:43;;;;;;;7.18;5.22;;;7.50;99.90;;;;;;5073605;28;20402;-71
2023/12/27 00:16:10;;;;;;;6.20;4.80;;;7.50;99.90;;;;;;5073453;28;20027;-71
2023/12/27 00:18:35;;;;;;;6.03;4.97;;;7.50;99.90;;;;;;5073353;28;20024;-71
2023/12/27 00:21:01;;;;;;;5.38;4.55;;;7.50;99.90;;;;;;5073432;28;20036;-71
2023/12/27 00:23:30;;;;;;;5.00;4.40;;;7.40;99.90;;;;;;5073372;28;20074;-71
2023/12/27 00:25:57;;;;;;;7.10;4.68;;;7.40;99.90;;;;;;5073214;28;20036;-72
2023/12/27 00:28:23;;;;;;;6.65;4.30;;;7.30;99.90;;;;;;5073536;28;20035;-71
2023/12/27 00:30:51;;;;;;;7.75;5.03;;;7.30;99.90;;;;;;5073181;28;20028;-71
2023/12/27 00:33:17;;;;;;;6.78;4.50;;;7.30;99.90;;;;;;5073111;28;20106;-71
2023/12/27 00:35:42;;;;;;;5.57;4.68;;;7.40;99.90;;;;;;5072945;28;20024;-71
2023/12/27 00:38:08;;;;;;;7.43;4.72;;;7.40;99.90;;;;;;5073507;28;20458;-71
2023/12/27 00:40:34;;;;;;;6.07;4.65;;;7.30;99.90;;;;;;5072593;28;20115;-72
2023/12/27 00:43:00;;;;;;;6.40;4.70;;;7.30;99.90;;;;;;5072903;28;20117;-71
2023/12/27 00:45:25;;;;;;;8.02;4.53;;;7.30;99.90;;;;;;5072983;28;20041;-71
2023/12/27 00:47:51;;;;;;;4.55;4.13;;;7.60;99.90;;;;;;5071510;28;20033;-71
2023/12/27 00:50:17;;;;;;;5.85;3.60;;;7.70;99.90;;;;;;5072287;28;20025;-70
2023/12/27 00:52:43;;;;;;;4.80;3.65;;;7.70;99.90;;;;;;5072744;28;20086;-71
2023/12/27 00:55:09;;;;;;;6.55;3.78;;;7.70;99.90;;;;;;5073207;28;20095;-71
2023/12/27 00:57:35;;;;;;;6.57;4.35;;;7.90;99.90;;;;;;5072617;28;20052;-71
2023/12/27 01:00:00;;;;;;;6.75;4.57;;;8.00;99.90;;;;;;5072532;28;20024;-71
2023/12/27 01:02:26;;;;;;;4.38;3.80;;;8.10;99.90;;;;;;5072708;28;20039;-72
2023/12/27 01:04:53;;;;;;;9.60;4.97;;;8.00;99.90;;;;;;5072401;28;20048;-71
2023/12/27 01:07:21;;;;;;;22.33;11.48;;;7.80;99.90;;;;;;5072310;28;20111;-71
2023/12/27 01:09:47;;;;;;;16.23;9.30;;;7.50;99.90;;;;;;5071795;28;20024;-71
2023/12/27 01:12:13;;;;;;;15.55;10.10;;;7.40;99.90;;;;;;5072405;28;20021;-71
2023/12/27 01:14:38;;;;;;;11.18;6.60;;;7.30;99.90;;;;;;5072702;28;20059;-71
2023/12/27 01:17:04;;;;;;;7.63;5.38;;;7.30;99.90;;;;;;5071892;28;20123;-72
2023/12/27 01:19:30;;;;;;;15.30;9.05;;;7.30;99.90;;;;;;5071948;28;20021;-71
2023/12/27 01:21:56;;;;;;;14.07;8.55;;;7.20;99.90;;;;;;5072450;28;20124;-72
2023/12/27 01:24:21;;;;;;;8.55;5.85;;;7.20;99.90;;;;;;5072612;28;20471;-71
2023/12/27 01:26:47;;;;;;;7.63;5.07;;;7.10;99.90;;;;;;5072275;28;20029;-72
2023/12/27 01:29:12;;;;;;;5.82;4.60;;;7.10;99.90;;;;;;5072216;28;20017;-71
2023/12/27 01:31:38;;;;;;;6.60;4.45;;;7.00;99.90;;;;;;5072092;28;20028;-71
2023/12/27 01:34:04;;;;;;;4.93;4.47;;;7.00;99.90;;;;;;5071621;28;20102;-71
2023/12/27 01:36:29;;;;;;;7.45;5.50;;;7.00;99.90;;;;;;5072554;28;20029;-71
2023/12/27 01:38:55;;;;;;;27.00;12.70;;;7.00;99.90;;;;;;5072112;28;20032;-71
2023/12/27 01:41:21;;;;;;;30.20;14.32;;;7.00;99.90;;;;;;5071779;28;20064;-71
2023/12/27 01:43:46;;;;;;;35.58;17.13;;;6.90;99.90;;;;;;5072145;28;20032;-71
2023/12/27 01:46:12;;;;;;;28.83;14.30;;;6.80;99.90;;;;;;5072178;28;20053;-71
2023/12/27 01:48:40;;;;;;;31.35;15.00;;;6.90;99.90;;;;;;5071616;28;20020;-71
2023/12/27 01:51:06;;;;;;;13.52;9.30;;;6.80;99.90;;;;;;5071980;28;20028;-71
2023/12/27 01:53:32;;;;;;;8.23;6.63;;;6.80;99.90;;;;;;5071997;28;20027;-71
2023/12/27 01:55:58;;;;;;;12.25;9.02;;;6.90;99.90;;;;;;5071922;28;20372;-72
2023/12/27 01:58:26;;;;;;;10.07;7.93;;;6.90;99.90;;;;;;5072058;28;20031;-72
2023/12/27 02:00:52;;;;;;;10.75;7.93;;;6.90;99.90;;;;;;5071649;28;20490;-71
2023/12/27 02:03:18;;;;;;;8.77;7.40;;;6.80;99.90;;;;;;5071446;28;20021;-72
2023/12/27 02:05:45;;;;;;;8.43;7.57;;;6.80;99.90;;;;;;5071857;28;20039;-71
2023/12/27 02:08:13;;;;;;;7.85;6.28;;;6.80;99.90;;;;;;5071793;28;20032;-72
2023/12/27 02:10:41;;;;;;;7.60;6.80;;;6.80;99.90;;;;;;5071825;28;20439;-72
2023/12/27 02:13:07;;;;;;;8.70;7.22;;;6.80;99.90;;;;;;5071778;28;20108;-71
2023/12/27 02:15:34;;;;;;;9.63;6.90;;;6.70;99.90;;;;;;5072017;28;20448;-72
2023/12/27 02:18:01;;;;;;;6.88;6.10;;;6.70;99.90;;;;;;5071303;28;20025;-72
2023/12/27 02:20:27;;;;;;;7.93;5.72;;;6.80;99.90;;;;;;5074011;28;20043;-72
2023/12/27 02:22:55;;;;;;;6.00;5.50;;;6.80;99.90;;;;;;5076069;28;20028;-71
2023/12/27 02:25:21;;;;;;;5.60;5.07;;;6.70;99.90;;;;;;5075692;28;20510;-72
2023/12/27 02:27:47;;;;;;;5.78;5.30;;;6.70;99.90;;;;;;5075307;28;20112;-72
2023/12/27 02:30:18;;;;;;;6.20;5.70;;;6.70;99.90;;;;;;5075427;28;20158;-72
2023/12/27 02:32:44;;;;;;;5.85;5.35;;;6.70;99.90;;;;;;5075118;28;20032;-72
2023/12/27 02:35:11;;;;;;;5.95;5.45;;;6.60;99.90;;;;;;5075431;28;20118;-71
2023/12/27 02:37:36;;;;;;;5.60;5.10;;;6.60;99.90;;;;;;5075721;28;20046;-72
2023/12/27 02:40:03;;;;;;;6.10;5.50;;;6.60;99.90;;;;;;5075065;28;20475;-71
2023/12/27 02:42:32;;;;;;;6.15;5.00;;;6.60;99.90;;;;;;5075092;28;20032;-71
2023/12/27 02:44:58;;;;;;;5.32;4.82;;;7.00;99.90;;;;;;5074622;28;20407;-71
2023/12/27 02:47:23;;;;;;;5.22;4.72;;;7.20;99.90;;;;;;5075166;28;20103;-71
2023/12/27 02:49:49;;;;;;;5.40;4.90;;;7.30;99.90;;;;;;5075548;28;20028;-71
2023/12/27 02:52:14;;;;;;;5.38;4.88;;;7.40;99.90;;;;;;5074998;28;20029;-71
2023/12/27 02:54:40;;;;;;;5.43;4.68;;;7.40;99.90;;;;;;5073710;28;20446;-71
2023/12/27 02:57:06;;;;;;;4.68;4.28;;;7.50;99.90;;;;;;5075653;28;20017;-72
2023/12/27 02:59:31;;;;;;;4.35;3.90;;;7.50;99.90;;;;;;5074670;28;20081;-71
2023/12/27 03:01:57;;;;;;;4.20;3.80;;;7.40;99.90;;;;;;5074672;28;20082;-72
2023/12/27 03:04:23;;;;;;;5.28;4.20;;;7.30;99.90;;;;;;5074917;28;20021;-72
2023/12/27 03:06:49;;;;;;;4.20;3.90;;;7.00;99.90;;;;;;5074655;28;20071;-72
2023/12/27 03:09:15;;;;;;;3.83;3.53;;;6.90;99.90;;;;;;5074703;28;20471;-72
2023/12/27 03:11:41;;;;;;;4.50;4.10;;;6.70;99.90;;;;;;5075038;28;20105;-72
2023/12/27 03:14:06;;;;;;;4.15;3.85;;;6.70;99.90;;;;;;5074068;28;20028;-71
2023/12/27 03:16:32;;;;;;;5.13;3.83;;;6.70;99.90;;;;;;5074579;28;20069;-72
2023/12/27 03:18:59;;;;;;;4.50;4.10;;;6.60;99.90;;;;;;5074486;28;20447;-72
2023/12/27 03:21:25;;;;;;;4.07;3.78;;;6.50;99.90;;;;;;5074581;28;20036;-72
2023/12/27 03:23:51;;;;;;;4.20;3.80;;;6.50;99.90;;;;;;5074775;28;20103;-72
2023/12/27 03:26:17;;;;;;;4.43;3.88;;;6.40;99.90;;;;;;5074697;28;20025;-71
2023/12/27 03:28:43;;;;;;;4.70;4.30;;;6.40;99.90;;;;;;5073901;28;20074;-72
2023/12/27 03:31:08;;;;;;;4.00;3.70;;;6.40;99.90;;;;;;5073677;28;20425;-71
2023/12/27 03:33:34;;;;;;;4.10;3.70;;;6.50;99.90;;;;;;5074323;28;20028;-72
2023/12/27 03:36:00;;;;;;;4.13;3.83;;;6.40;99.90;;;;;;5073450;28;20074;-72
2023/12/27 03:38:26;;;;;;;4.60;4.20;;;6.40;99.90;;;;;;5073916;28;20021;-71
2023/12/27 03:40:51;;;;;;;4.55;4.15;;;6.30;99.90;;;;;;5074187;28;20056;-71
2023/12/27 03:43:17;;;;;;;4.22;3.88;;;6.30;99.90;;;;;;5074004;28;20033;-71
2023/12/27 03:45:44;;;;;;;4.43;4.00;;;6.40;99.90;;;;;;5074006;28;20041;-71
2023/12/27 03:48:09;;;;;;;4.75;3.85;;;6.30;99.90;;;;;;5074459;28;20016;-72
2023/12/27 03:50:35;;;;;;;4.22;3.92;;;6.30;99.90;;;;;;5073975;28;20032;-72
2023/12/27 03:53:01;;;;;;;4.18;3.88;;;6.30;99.90;;;;;;5073986;28;20028;-71
2023/12/27 03:55:27;;;;;;;4.93;4.10;;;6.30;99.90;;;;;;5073792;28;20024;-72
2023/12/27 03:57:53;;;;;;;4.70;3.75;;;6.30;99.90;;;;;;5073980;28;20033;-72
2023/12/27 04:00:19;;;;;;;4.60;4.20;;;6.30;99.90;;;;;;5073534;28;20028;-71
2023/12/27 04:02:45;;;;;;;4.40;4.00;;;6.30;99.90;;;;;;5073768;28;20036;-71
2023/12/27 04:05:12;;;;;;;4.47;4.07;;;6.20;99.90;;;;;;5073715;28;20025;-71
2023/12/27 04:07:38;;;;;;;5.90;4.13;;;6.20;99.90;;;;;;5073705;28;20036;-72
2023/12/27 04:10:05;;;;;;;4.35;3.65;;;6.10;99.90;;;;;;5073649;28;20025;-72
2023/12/27 04:12:31;;;;;;;5.75;4.30;;;6.10;99.90;;;;;;5073552;28;20024;-71
2023/12/27 04:14:56;;;;;;;4.32;3.92;;;6.20;99.90;;;;;;5073830;28;20046;-72
2023/12/27 04:17:22;;;;;;;5.18;4.03;;;6.20;99.90;;;;;;5073516;28;20118;-72
2023/12/27 04:19:48;;;;;;;4.57;4.15;;;6.10;99.90;;;;;;5073606;28;20027;-72
2023/12/27 04:22:14;;;;;;;4.70;4.18;;;6.10;99.90;;;;;;5073310;28;20045;-72
2023/12/27 04:24:39;;;;;;;4.50;4.10;;;6.20;99.90;;;;;;5073689;28;20025;-72
2023/12/27 04:27:05;;;;;;;5.05;4.40;;;6.10;99.90;;;;;;5071861;28;20064;-72
2023/12/27 04:29:31;;;;;;;4.50;4.10;;;6.10;99.90;;;;;;5073092;28;20020;-72
2023/12/27 04:31:56;;;;;;;5.45;4.40;;;6.10;99.90;;;;;;5073138;28;20071;-72
2023/12/27 04:34:22;;;;;;;4.82;4.43;;;6.10;99.90;;;;;;5073531;28;20030;-71
2023/12/27 04:36:48;;;;;;;6.03;4.90;;;6.10;99.90;;;;;;5072969;28;20032;-71
2023/12/27 04:39:13;;;;;;;5.00;4.60;;;6.10;99.90;;;;;;5073049;28;20202;-71
2023/12/27 04:41:40;;;;;;;4.88;4.40;;;6.20;99.90;;;;;;5072416;28;20072;-71
2023/12/27 04:44:06;;;;;;;4.80;4.18;;;6.40;99.90;;;;;;5072697;28;20029;-71
2023/12/27 04:46:31;;;;;;;4.82;4.43;;;6.60;99.90;;;;;;5072952;28;20464;-71
2023/12/27 04:48:57;;;;;;;4.60;4.20;;;6.70;99.90;;;;;;5073211;28;20024;-71
2023/12/27 04:51:23;;;;;;;4.35;3.95;;;6.90;99.90;;;;;;5072815;28;20399;-70
2023/12/27 04:53:49;;;;;;;4.93;4.53;;;6.90;99.90;;;;;;5072768;28;20103;-71
2023/12/27 04:56:18;;;;;;;5.65;4.50;;;7.00;99.90;;;;;;5072744;28;20403;-72
2023/12/27 04:58:43;;;;;;;5.30;4.90;;;6.90;99.90;;;;;;5072519;28;20024;-71
2023/12/27 05:01:09;;;;;;;5.60;5.10;;;6.80;99.90;;;;;;5072742;28;20032;-72
2023/12/27 05:03:37;;;;;;;6.78;5.70;;;6.50;99.90;;;;;;5072564;28;20024;-72
2023/12/27 05:06:06;;;;;;;5.90;5.40;;;6.40;99.90;;;;;;5072384;28;20028;-71
2023/12/27 05:08:32;;;;;;;6.25;5.72;;;6.30;99.90;;;;;;5072417;28;20081;-71
2023/12/27 05:10:57;;;;;;;6.10;5.50;;;6.20;99.90;;;;;;5072504;28;20494;-71
2023/12/27 05:13:23;;;;;;;6.13;5.53;;;6.20;99.90;;;;;;5072560;28;20066;-71
2023/12/27 05:15:49;;;;;;;5.90;5.40;;;6.20;99.90;;;;;;5072435;28;20066;-71
2023/12/27 05:18:15;;;;;;;5.68;5.15;;;6.10;99.90;;;;;;5072309;28;20035;-71
2023/12/27 05:20:40;;;;;;;6.40;5.80;;;6.10;99.90;;;;;;5072292;28;20032;-71
2023/12/27 05:23:06;;;;;;;5.53;5.03;;;6.10;99.90;;;;;;5072372;28;20025;-72
2023/12/27 05:25:32;;;;;;;5.95;5.45;;;6.00;99.90;;;;;;5072529;28;20369;-71
2023/12/27 05:27:57;;;;;;;6.55;5.88;;;6.00;99.90;;;;;;5072125;28;20036;-72
2023/12/27 05:30:23;;;;;;;6.70;6.10;;;5.90;99.90;;;;;;5072270;28;20534;-71
2023/12/27 05:32:49;;;;;;;6.88;6.28;;;5.90;99.90;;;;;;5072213;28;20108;-72
2023/12/27 05:35:15;;;;;;;6.20;5.60;;;5.90;99.90;;;;;;5072724;28;20500;-71
2023/12/27 05:37:40;;;;;;;6.70;6.10;;;5.90;99.90;;;;;;5072181;28;20032;-72
2023/12/27 05:40:06;;;;;;;6.90;6.20;;;5.80;99.90;;;;;;5071556;28;20039;-71
2023/12/27 05:42:32;;;;;;;6.70;6.10;;;5.80;99.90;;;;;;5072065;28;20036;-71
2023/12/27 05:44:58;;;;;;;6.80;6.15;;;5.70;99.90;;;;;;5072253;28;20399;-72
2023/12/27 05:47:23;;;;;;;7.60;6.80;;;5.70;99.90;;;;;;5071974;28;20066;-72
2023/12/27 05:49:49;;;;;;;7.70;7.00;;;5.60;99.90;;;;;;5072145;28;20032;-71
2023/12/27 05:52:15;;;;;;;8.02;7.25;;;5.70;99.90;;;;;;5071801;28;20504;-72
2023/12/27 05:54:40;;;;;;;9.15;7.10;;;5.60;99.90;;;;;;5071166;28;20066;-72
2023/12/27 05:57:06;;;;;;;8.38;7.57;;;5.60;99.90;;;;;;5072168;28;20028;-72
2023/12/27 05:59:32;;;;;;;7.97;7.28;;;5.60;99.90;;;;;;5071724;28;20471;-71
2023/12/27 06:01:57;;;;;;;8.32;7.40;;;5.60;99.90;;;;;;5071845;28;20047;-72
2023/12/27 06:04:23;;;;;;;8.27;7.47;;;5.70;99.90;;;;;;5072262;28;20021;-71
2023/12/27 06:06:49;;;;;;;8.60;7.80;;;5.60;99.90;;;;;;5071928;28;20044;-72
2023/12/27 06:09:18;;;;;;;8.80;7.90;;;5.50;99.90;;;;;;5071534;28;20385;-71
2023/12/27 06:11:45;;;;;;;9.68;8.10;;;5.50;99.90;;;;;;5071633;28;20052;-71
2023/12/27 06:14:11;;;;;;;8.45;7.65;;;5.60;99.90;;;;;;5072003;28;20017;-71
2023/12/27 06:16:37;;;;;;;8.88;7.97;;;5.50;99.90;;;;;;5071846;28;20029;-71
2023/12/27 06:19:03;;;;;;;8.70;7.90;;;5.50;99.90;;;;;;5071749;28;20096;-72
2023/12/27 06:21:29;;;;;;;8.07;7.28;;;5.40;99.90;;;;;;5071561;28;20033;-72
2023/12/27 06:23:56;;;;;;;8.82;7.20;;;5.40;99.90;;;;;;5071518;28;20094;-72
2023/12/27 06:26:22;;;;;;;7.97;7.22;;;5.30;99.90;;;;;;5071634;28;20028;-72
2023/12/27 06:28:48;;;;;;;8.40;7.60;;;5.30;99.90;;;;;;5071887;28;20405;-72
2023/12/27 06:31:13;;;;;;;7.25;6.53;;;5.30;99.90;;;;;;5071685;28;20091;-71
2023/12/27 06:33:39;;;;;;;7.22;6.57;;;5.30;99.90;;;;;;5071646;28;20416;-72
2023/12/27 06:36:07;;;;;;;7.43;6.50;;;5.30;99.90;;;;;;5071460;28;20393;-71
2023/12/27 06:38:33;;;;;;;8.48;6.85;;;5.20;99.90;;;;;;5071681;28;20028;-71
2023/12/27 06:41:00;;;;;;;7.70;6.90;;;5.30;99.90;;;;;;5071160;28;20115;-71
2023/12/27 06:43:26;;;;;;;7.53;6.60;;;5.20;99.90;;;;;;5071445;28;20399;-71
2023/12/27 06:45:52;;;;;;;7.85;6.90;;;5.30;99.90;;;;;;5071553;28;20047;-72
2023/12/27 06:48:18;;;;;;;9.60;7.10;;;5.60;99.90;;;;;;5071735;28;20487;-71
2023/12/27 06:50:44;;;;;;;6.78;6.15;;;5.80;99.90;;;;;;5071292;28;20032;-71
2023/12/27 06:53:10;;;;;;;7.35;6.63;;;6.00;99.90;;;;;;5071103;28;20040;-71
2023/12/27 06:55:36;;;;;;;7.10;6.40;;;6.10;99.90;;;;;;5071485;28;20024;-70
2023/12/27 06:58:02;;;;;;;7.78;6.68;;;6.10;99.90;;;;;;5071321;28;20048;-71
2023/12/27 07:00:30;;;;;;;6.93;6.22;;;6.00;99.90;;;;;;5071332;28;20031;-71
2023/12/27 07:02:56;;;;;;;6.90;6.20;;;5.90;99.90;;;;;;5071352;28;20041;-71
2023/12/27 07:05:22;;;;;;;7.32;6.38;;;5.90;99.90;;;;;;5071502;28;20032;-72
2023/12/27 07:07:47;;;;;;;7.03;6.18;;;5.60;99.90;;;;;;5073652;28;20025;-71
2023/12/27 07:10:13;;;;;;;7.15;6.45;;;5.50;99.90;;;;;;5074751;28;20024;-71
2023/12/27 07:12:39;;;;;;;8.05;7.00;;;5.40;99.90;;;;;;5073482;28;20035;-72
2023/12/27 07:15:10;;;;;;;8.15;6.80;;;5.40;99.90;;;;;;5074738;28;20074;-71
2023/12/27 07:17:36;;;;;;;7.50;6.80;;;5.30;99.90;;;;;;5074579;28;20033;-71
2023/12/27 07:20:02;;;;;;;8.35;6.55;;;5.30;99.90;;;;;;5074416;28;20490;-72
2023/12/27 07:22:28;;;;;;;8.15;7.35;;;5.20;99.90;;;;;;5074254;28;20036;-71
2023/12/27 07:24:53;;;;;;;7.72;6.95;;;5.20;99.90;;;;;;5074587;28;20092;-72
2023/12/27 07:27:19;;;;;;;7.35;6.55;;;5.10;99.90;;;;;;5074855;28;20082;-71
2023/12/27 07:29:45;;;;;;;7.65;6.63;;;5.00;99.90;;;;;;5074439;28;20058;-72
2023/12/27 07:32:11;;;;;;;6.85;6.05;;;5.00;99.90;;;;;;5074511;28;20458;-71
2023/12/27 07:34:36;;;;;;;6.40;5.70;;;5.00;99.90;;;;;;5074268;28;20067;-71
2023/12/27 07:37:03;;;;;;;6.85;5.90;;;4.90;99.90;;;;;;5073954;28;20029;-71
2023/12/27 07:39:29;;;;;;;7.40;6.20;;;5.00;99.90;;;;;;5074607;28;20043;-71
2023/12/27 07:41:55;;;;;;;6.50;5.90;;;5.00;99.90;;;;;;5074023;28;20503;-71
2023/12/27 07:44:21;;;;;;;7.40;6.65;;;4.90;99.90;;;;;;5074003;28;20131;-71
2023/12/27 07:46:46;;;;;;;7.38;6.60;;;4.90;99.90;;;;;;5074089;28;20055;-71
2023/12/27 07:49:12;;;;;;;11.25;9.73;;;4.90;99.90;;;;;;5074160;28;20107;-72
2023/12/27 07:51:38;;;;;;;10.18;9.27;;;4.90;99.90;;;;;;5073938;28;20028;-71
2023/12/27 07:54:03;;;;;;;7.82;7.10;;;4.90;99.90;;;;;;5073835;28;20050;-71
2023/12/27 07:56:29;;;;;;;7.35;6.65;;;4.90;99.90;;;;;;5074385;28;20510;-71
2023/12/27 07:58:55;;;;;;;6.80;5.60;;;4.90;99.90;;;;;;5073840;28;20081;-72
2023/12/27 08:01:21;;;;;;;6.63;5.93;;;4.90;99.90;;;;;;5073687;28;20032;-71
2023/12/27 08:03:47;;;;;;;8.63;6.80;;;4.80;99.90;;;;;;5073828;28;20047;-71
2023/12/27 08:06:13;;;;;;;8.30;6.78;;;4.70;99.90;;;;;;5073441;28;20479;-72
2023/12/27 08:08:38;;;;;;;7.88;6.72;;;4.70;99.90;;;;;;5074048;28;20036;-72
2023/12/27 08:11:04;;;;;;;8.80;7.75;;;4.70;99.90;;;;;;5073567;28;20446;-72
2023/12/27 08:13:34;;;;;;;7.80;7.05;;;4.80;99.90;;;;;;5073616;28;20576;-72
2023/12/27 08:16:00;;;;;;;7.93;6.82;;;4.80;99.90;;;;;;5073442;28;20074;-72
2023/12/27 08:18:26;;;;;;;6.80;6.00;;;4.80;99.90;;;;;;5072859;28;20029;-72
2023/12/27 08:20:51;;;;;;;6.63;6.03;;;4.80;99.90;;;;;;5073444;28;20036;-72
2023/12/27 08:23:17;;;;;;;8.27;6.43;;;4.80;99.90;;;;;;5073367;28;20047;-71
2023/12/27 08:25:44;;;;;;;8.00;7.18;;;4.80;99.90;;;;;;5073753;28;20099;-72
2023/12/27 08:28:10;;;;;;;7.78;6.78;;;4.80;99.90;;;;;;5072904;28;20099;-72
2023/12/27 08:30:37;;;;;;;8.45;6.22;;;4.80;99.90;;;;;;5072983;28;20024;-71
2023/12/27 08:33:06;;;;;;;6.30;5.40;;;4.90;99.90;;;;;;5073296;28;20028;-72
2023/12/27 08:35:35;;;;;;;7.05;5.43;;;5.00;99.90;;;;;;5073148;28;20025;-72
2023/12/27 08:38:02;;;;;;;6.32;5.20;;;5.00;99.90;;;;;;5073155;28;20021;-71
2023/12/27 08:40:28;;;;;;;5.38;4.88;;;4.90;99.90;;;;;;5072804;28;20089;-72
2023/12/27 08:42:54;;;;;;;5.47;4.60;;;4.90;99.90;;;;;;5073271;28;20108;-72
2023/12/27 08:45:20;;;;;;;6.07;4.40;;;4.90;99.90;;;;;;5072698;28;20144;-71
2023/12/27 08:47:46;;;;;;;4.88;4.35;;;4.90;99.90;;;;;;5054777;28;20485;-71
2023/12/27 08:50:12;;;;;;;4.43;4.03;;;5.00;99.90;;;;;;5072767;28;20024;-71
2023/12/27 08:52:38;;;;;;;5.53;4.78;;;5.30;99.90;;;;;;5072880;28;20475;-71
2023/12/27 08:55:06;;;;;;;5.07;4.57;;;5.50;99.90;;;;;;5072729;28;20071;-72
2023/12/27 08:57:32;;;;;;;5.35;4.22;;;5.60;99.90;;;;;;5072918;28;20016;-71
2023/12/27 08:59:58;;;;;;;4.78;4.30;;;5.70;99.90;;;;;;5072670;28;20036;-71
2023/12/27 09:02:23;;;;;;;4.38;3.90;;;5.70;99.90;;;;;;5072502;28;20040;-71
2023/12/27 09:04:49;;;;;;;4.15;3.70;;;5.90;99.90;;;;;;5072676;28;20499;-71
2023/12/27 09:07:16;;;;;;;4.07;3.67;;;5.90;99.90;;;;;;5072898;28;20024;-72
2023/12/27 09:09:42;;;;;;;4.05;3.55;;;5.70;99.90;;;;;;5072457;28;20028;-72
2023/12/27 09:12:07;;;;;;;4.20;3.40;;;5.60;99.90;;;;;;5072542;28;20078;-72
2023/12/27 09:14:33;;;;;;;5.10;3.85;;;5.50;99.90;;;;;;5072656;28;20482;-72
2023/12/27 09:16:59;;;;;;;5.22;4.00;;;5.50;99.90;;;;;;5071923;28;20082;-72
2023/12/27 09:19:25;;;;;;;4.55;4.10;;;5.40;99.90;;;;;;5072546;28;20086;-72
2023/12/27 09:21:51;;;;;;;5.55;4.32;;;5.40;99.90;;;;;;5072315;28;20038;-72
2023/12/27 09:24:18;;;;;;;4.63;4.20;;;5.30;99.90;;;;;;5072563;28;20390;-72
2023/12/27 09:26:47;;;;;;;4.45;4.05;;;5.30;99.90;;;;;;5072204;28;20060;-71
2023/12/27 09:29:13;;;;;;;3.88;3.58;;;5.30;99.90;;;;;;5071727;28;20013;-72
2023/12/27 09:31:38;;;;;;;3.90;2.97;;;5.40;99.90;;;;;;5071923;28;20387;-72
2023/12/27 09:34:04;;;;;;;3.38;3.08;;;5.40;99.90;;;;;;5072572;28;20368;-72
2023/12/27 09:36:31;;;;;;;4.93;3.03;;;5.50;99.90;;;;;;5072436;28;20024;-71
2023/12/27 09:38:56;;;;;;;4.63;3.17;;;5.50;99.90;;;;;;5072099;28;20169;-72
2023/12/27 09:41:22;;;;;;;3.38;3.00;;;5.50;99.90;;;;;;5071962;28;20076;-72
2023/12/27 09:43:52;;;;;;;3.85;2.85;;;5.50;99.90;;;;;;5072031;28;20025;-72
2023/12/27 09:46:18;;;;;;;3.40;3.10;;;5.50;99.90;;;;;;5070233;28;20454;-73
2023/12/27 09:48:45;;;;;;;3.97;2.70;;;5.50;99.90;;;;;;5072268;28;20021;-72
2023/12/27 09:51:11;;;;;;;2.92;2.30;;;5.50;99.90;;;;;;5072179;28;20162;-72
2023/12/27 09:53:40;;;;;;;3.55;2.30;;;5.50;99.90;;;;;;5072036;28;20542;-72
2023/12/27 09:56:07;;;;;;;3.10;2.60;;;5.60;99.90;;;;;;5071845;28;20025;-72
2023/12/27 09:58:35;;;;;;;3.20;2.30;;;5.60;99.90;;;;;;5072328;28;20028;-72
2023/12/27 10:01:02;;;;;;;3.10;2.17;;;5.70;99.90;;;;;;5071481;28;20028;-72
2023/12/27 10:03:38;;;;;;;2.13;1.90;;;5.70;99.90;;;;;;5071790;28;20053;-72
2023/12/27 10:06:11;;;;;;;1.83;1.73;;;5.80;99.90;;;;;;5071798;28;20101;-72
2023/12/27 10:08:39;;;;;;;2.58;2.00;;;5.80;99.90;;;;;;5071841;28;20375;-72
2023/12/27 10:11:08;;;;;;;3.33;2.22;;;5.90;99.90;;;;;;5071947;28;20035;-72
2023/12/27 10:13:38;;;;;;;2.47;2.10;;;6.00;99.90;;;;;;5071744;28;20036;-72
2023/12/27 10:16:04;;;;;;;7.38;2.30;;;6.10;99.90;;;;;;5071373;28;20522;-72
2023/12/27 10:18:31;;;;;;;2.40;1.77;;;6.10;99.90;;;;;;5072149;28;20544;-72
2023/12/27 10:20:56;;;;;;;4.13;1.80;;;6.10;99.90;;;;;;5071517;28;20032;-72
2023/12/27 10:23:23;;;;;;;2.30;1.73;;;6.20;99.90;;;;;;5071603;28;20028;-71
2023/12/27 10:25:50;;;;;;;4.47;1.83;;;6.30;99.90;;;;;;5071739;28;20475;-71
2023/12/27 10:28:16;;;;;;;1.70;1.60;;;6.40;99.90;;;;;;5071492;28;20119;-72
2023/12/27 10:30:44;;;;;;;2.22;1.52;;;6.40;99.90;;;;;;5071596;28;20059;-73
2023/12/27 10:33:09;;;;;;;3.13;1.77;;;6.50;99.90;;;;;;5071714;28;20078;-71
2023/12/27 10:35:38;;;;;;;1.70;1.60;;;6.60;99.90;;;;;;5071529;28;20056;-71
2023/12/27 10:38:06;;;;;;;2.13;1.58;;;6.60;99.90;;;;;;5071572;28;20085;-73
2023/12/27 10:40:36;;;;;;;1.70;1.60;;;6.70;99.90;;;;;;5072482;28;20082;-73
2023/12/27 10:43:02;;;;;;;2.55;1.67;;;6.70;99.90;;;;;;5073748;28;20094;-73
2023/12/27 10:45:28;;;;;;;2.38;1.63;;;6.80;99.90;;;;;;5074998;28;20056;-73
2023/12/27 10:47:59;;;;;;;2.83;1.58;;;6.80;99.90;;;;;;5075339;28;20035;-73
2023/12/27 10:50:29;;;;;;;1.73;1.40;;;6.90;99.90;;;;;;5073788;28;20452;-74
2023/12/27 10:53:08;;;;;;;1.58;1.40;;;6.90;99.90;;;;;;5074244;28;20028;-73
2023/12/27 10:55:35;;;;;;;2.30;1.50;;;7.00;99.90;;;;;;5074784;28;20037;-73
2023/12/27 10:58:05;;;;;;;1.73;1.63;;;7.10;99.90;;;;;;5074639;28;20020;-73
2023/12/27 11:00:31;;;;;;;1.67;1.45;;;7.40;99.90;;;;;;5075367;28;20479;-73
2023/12/27 11:03:00;;;;;;;2.47;1.25;;;7.50;99.90;;;;;;5074932;28;20540;-73
2023/12/27 11:05:29;;;;;;;2.50;1.38;;;7.70;99.90;;;;;;5074940;28;20103;-73
2023/12/27 11:07:57;;;;;;;1.70;1.60;;;7.80;99.90;;;;;;5074897;28;20025;-73
2023/12/27 11:10:23;;;;;;;2.88;1.70;;;8.00;99.90;;;;;;5074702;28;20105;-73
2023/12/27 11:12:50;;;;;;;1.67;1.33;;;8.10;99.90;;;;;;5074781;28;20028;-74
2023/12/27 11:15:20;;;;;;;2.15;1.70;;;8.20;99.90;;;;;;5074732;28;20024;-74
2023/12/27 11:17:48;;;;;;;3.13;1.73;;;8.20;99.90;;;;;;5074708;28;20082;-74
2023/12/27 11:20:18;;;;;;;2.53;1.40;;;8.20;99.90;;;;;;5074637;28;20033;-74
2023/12/27 11:22:44;;;;;;;2.78;1.30;;;8.10;99.90;;;;;;5074866;28;20392;-74
2023/12/27 11:25:11;;;;;;;1.40;1.27;;;8.10;99.90;;;;;;5074551;28;20095;-74
2023/12/27 11:27:37;;;;;;;2.42;2.05;;;8.10;99.90;;;;;;5074122;28;20025;-74
2023/12/27 11:30:04;;;;;;;2.42;1.73;;;8.10;99.90;;;;;;5074425;28;20047;-74
2023/12/27 11:32:30;;;;;;;2.10;1.77;;;8.20;99.90;;;;;;5074532;28;20036;-74
2023/12/27 11:34:57;;;;;;;3.20;2.33;;;8.20;99.90;;;;;;5074370;28;20024;-74
2023/12/27 11:37:23;;;;;;;2.88;2.28;;;8.30;99.90;;;;;;5074711;28;20035;-73
2023/12/27 11:39:52;;;;;;;3.58;2.50;;;8.30;99.90;;;;;;5074057;28;20024;-74
2023/12/27 11:42:18;;;;;;;2.78;2.42;;;8.40;99.90;;;;;;5073690;28;20062;-74
2023/12/27 11:44:58;;;;;;;2.40;2.20;;;8.40;99.90;;;;;;5074013;28;20115;-74
2023/12/27 11:47:27;;;;;;;3.35;2.78;;;8.50;99.90;;;;;;5074109;28;20090;-74
2023/12/27 11:50:11;;;;;;;3.58;3.00;;;8.60;99.90;;;;;;5074150;28;20534;-74
2023/12/27 11:52:46;;;;;;;2.50;2.20;;;8.60;99.90;;;;;;5073469;28;20111;-74
2023/12/27 11:55:16;;;;;;;3.10;2.00;;;8.70;99.90;;;;;;5073978;28;20433;-74
2023/12/27 11:57:45;;;;;;;3.38;2.35;;;8.80;99.90;;;;;;5073992;28;20078;-74
2023/12/27 12:00:12;;;;;;;2.85;1.92;;;8.90;99.90;;;;;;5073944;28;20024;-74
2023/12/27 12:02:48;;;;;;;2.22;1.67;;;9.00;99.90;;;;;;5073658;28;20098;-74
2023/12/27 12:05:49;;;;;;;1.98;1.58;;;9.10;99.90;;;;;;5073887;28;20432;-74
2023/12/27 12:08:45;;;;;;;2.60;1.70;;;9.10;99.90;;;;;;5071529;28;20151;-74
2023/12/27 12:11:14;;;;;;;2.33;1.77;;;9.20;99.90;;;;;;5073028;28;20029;-74
2023/12/27 12:13:40;;;;;;;2.00;1.55;;;9.30;99.90;;;;;;5074012;28;20027;-74
2023/12/27 12:16:06;;;;;;;1.63;1.52;;;9.30;99.90;;;;;;5073552;28;20102;-74
2023/12/27 12:18:34;;;;;;;1.80;1.45;;;9.40;99.90;;;;;;5073552;28;20448;-76
2023/12/27 12:21:00;;;;;;;3.85;1.70;;;9.50;99.90;;;;;;5073286;28;20037;-74
2023/12/27 12:23:30;;;;;;;2.08;1.50;;;9.50;99.90;;;;;;5073696;28;20036;-74
2023/12/27 12:26:02;;;;;;;2.25;1.60;;;9.60;99.90;;;;;;5073023;28;20020;-73
2023/12/27 12:28:29;;;;;;;2.15;1.95;;;9.70;99.90;;;;;;5073345;28;20099;-73
2023/12/27 12:30:58;;;;;;;3.88;1.70;;;9.80;99.90;;;;;;5073275;28;20079;-73
2023/12/27 12:33:24;;;;;;;2.80;2.05;;;9.80;99.90;;;;;;5073229;28;20063;-73
2023/12/27 12:35:52;;;;;;;1.85;1.60;;;9.90;99.90;;;;;;5073322;28;20048;-73
2023/12/27 12:38:18;;;;;;;2.00;1.80;;;10.00;99.90;;;;;;5073422;28;20031;-73
2023/12/27 12:40:50;;;;;;;3.05;1.80;;;10.00;99.90;;;;;;5072391;28;20116;-73
2023/12/27 12:43:16;;;;;;;2.10;1.65;;;10.20;99.90;;;;;;5073017;28;20021;-73
2023/12/27 12:45:46;;;;;;;2.55;1.83;;;10.30;99.90;;;;;;5072801;28;20121;-73
2023/12/27 12:48:12;;;;;;;3.03;1.58;;;10.40;99.90;;;;;;5072862;28;20509;-73
2023/12/27 12:50:37;;;;;;;1.73;1.40;;;10.60;99.90;;;;;;5073032;28;20020;-73
2023/12/27 12:53:17;;;;;;;2.22;1.42;;;10.70;99.90;;;;;;5071097;28;20089;-73